Главная страница
METAR-TAF:

METAR-TAF

Аэропорты :

Тронхейм, Норвегия

широта: 63-28N, долгота: 010-56E, высота над уровнем моря: 1 м

Текущие метеонаблюдения

Эта сводка был подготовлена 16 минут назад, в 14:50 UTC
Ветер 9 Узел от западный
Температура 17°C
Влажность 68%
Давление 1027 hPa
Видимость 10 км и более
Нет облачности ниже 1500 м, и нет кучево-дождевой облачности

METAR: ENVA 091450Z 26009KT CAVOK 17/11 Q1027 RMK WIND 670FT 28007KT

Время: 17:06 (15:06 UTC)

Прогноз

Прогноз действительный с 09-го 12 UTC до 10-го 12 UTC
Ветер 10 Узел от западно-северо-западный
Видимость 10 км и более
Рассеянная облачность на высоте 4000 фута
изменения
С 09-го 18 UTC до 09-го 20 UTC
Ветер 5 Узел переменных направлений

TAF: ENVA 0912/1012 29010KT 9999 BKN040 BECMG 0918/0920 VRB05KT

Метеонаблюдения и прогнозы для более 4000 аэропортов (сводки METAR и TAF).

Имеющиеся станции представлены на карте желтыми и красными точками.

Чтобы увидеть название станции, наведите на нее мышь.

Затем щелкните, чтобы увидеть метеонаблюдения и метеопрогнозы.

Управление картой: чтобы увеличить масштаб, щелкните зеленые кнопки с черным крестиком; чтобы уменьшить масштаб, щелкните зеленую кнопку с тире; для просмотра соседних карт щелкайте зеленые стрелки.


METAR-TAF: